createdAt,value
2018-06-25T00:02:02.865Z,17.70
2018-06-25T00:04:30.908Z,17.70
2018-06-25T00:06:58.953Z,17.70
2018-06-25T00:09:27.012Z,17.70
2018-06-25T00:11:55.053Z,17.70
2018-06-25T00:14:23.096Z,17.70
2018-06-25T00:16:51.130Z,17.70
2018-06-25T00:19:19.161Z,17.70
2018-06-25T00:21:47.204Z,17.80
2018-06-25T00:24:15.238Z,17.80
2018-06-25T00:26:43.281Z,17.70
2018-06-25T00:29:11.322Z,17.80
2018-06-25T00:31:39.372Z,17.90
2018-06-25T00:34:07.412Z,17.90
2018-06-25T00:36:35.467Z,17.90
2018-06-25T00:39:03.622Z,17.90
2018-06-25T00:41:31.668Z,17.90
2018-06-25T00:43:59.697Z,17.90
2018-06-25T00:46:27.748Z,17.90
2018-06-25T00:48:55.973Z,17.90
2018-06-25T00:51:24.021Z,17.90
2018-06-25T00:53:52.217Z,17.90
2018-06-25T00:56:20.258Z,17.80
2018-06-25T00:58:59.736Z,17.80
2018-06-25T01:01:27.776Z,17.70
2018-06-25T01:03:55.999Z,17.70
2018-06-25T01:06:24.045Z,17.70
2018-06-25T01:08:52.090Z,17.70
2018-06-25T01:11:20.139Z,17.70
2018-06-25T01:13:48.177Z,17.60
2018-06-25T01:16:16.224Z,17.60
2018-06-25T01:18:44.260Z,17.60
2018-06-25T01:21:12.305Z,17.50
2018-06-25T01:23:40.352Z,17.50
2018-06-25T01:26:08.393Z,17.40
2018-06-25T01:28:36.440Z,17.40
2018-06-25T01:31:04.481Z,17.50
2018-06-25T01:33:32.529Z,17.50
2018-06-25T01:36:00.564Z,17.50
2018-06-25T01:38:28.641Z,17.40
2018-06-25T01:40:56.698Z,17.40
2018-06-25T01:43:24.761Z,17.40
2018-06-25T01:45:52.825Z,17.40
2018-06-25T01:48:20.885Z,17.40
2018-06-25T01:50:48.936Z,17.40
2018-06-25T01:53:16.992Z,17.40
2018-06-25T01:55:45.058Z,17.40
2018-06-25T01:58:13.117Z,17.40
2018-06-25T02:00:41.178Z,17.40
2018-06-25T02:03:09.248Z,17.40
2018-06-25T02:05:37.308Z,17.40
2018-06-25T02:08:05.617Z,17.30
2018-06-25T02:10:33.673Z,17.30
2018-06-25T02:13:01.728Z,17.30
2018-06-25T02:15:29.793Z,17.30
2018-06-25T02:17:57.868Z,17.30
2018-06-25T02:20:25.932Z,17.30
2018-06-25T02:22:54.009Z,17.30
2018-06-25T02:25:22.226Z,17.30
2018-06-25T02:27:50.284Z,17.30
2018-06-25T02:30:18.357Z,17.20
2018-06-25T02:32:46.420Z,17.20
2018-06-25T02:35:14.482Z,17.20
2018-06-25T02:37:42.520Z,17.20
2018-06-25T02:40:10.569Z,17.20
2018-06-25T02:42:38.608Z,17.20
2018-06-25T02:45:06.653Z,17.20
2018-06-25T02:47:34.697Z,17.20
2018-06-25T02:50:02.739Z,17.20
2018-06-25T02:52:30.773Z,17.10
2018-06-25T02:54:58.825Z,17.10
2018-06-25T02:57:26.857Z,17.10
2018-06-25T02:59:54.926Z,17.00
2018-06-25T03:02:22.962Z,17.00
2018-06-25T03:04:51.001Z,16.90
2018-06-25T03:07:19.045Z,16.90
2018-06-25T03:09:47.092Z,16.80
2018-06-25T03:12:15.136Z,16.80
2018-06-25T03:14:43.185Z,16.70
2018-06-25T03:17:11.225Z,16.70
2018-06-25T03:19:39.274Z,16.60
2018-06-25T03:22:07.321Z,16.60
2018-06-25T03:24:35.368Z,16.50
2018-06-25T03:27:03.412Z,16.40
2018-06-25T03:29:31.461Z,16.40
2018-06-25T03:31:59.509Z,16.40
2018-06-25T03:34:27.553Z,16.40
2018-06-25T03:36:55.594Z,16.40
2018-06-25T03:39:23.657Z,16.40
2018-06-25T03:41:51.711Z,16.40
2018-06-25T03:44:19.756Z,16.40
2018-06-25T03:46:47.802Z,16.50
2018-06-25T03:49:15.921Z,16.60
2018-06-25T03:51:43.976Z,16.60
2018-06-25T03:54:12.025Z,16.70
2018-06-25T03:56:40.085Z,16.70
2018-06-25T03:59:08.122Z,16.80
2018-06-25T04:01:36.929Z,16.80
2018-06-25T04:04:04.982Z,16.80
2018-06-25T04:06:33.016Z,16.90
2018-06-25T04:09:01.064Z,17.00
2018-06-25T04:11:29.113Z,17.00
2018-06-25T04:13:57.164Z,17.00
2018-06-25T04:16:25.208Z,17.10
2018-06-25T04:18:58.225Z,17.10
2018-06-25T04:21:26.264Z,17.20
2018-06-25T04:26:22.148Z,17.20
2018-06-25T04:28:50.200Z,17.20
2018-06-25T04:31:18.245Z,17.30
2018-06-25T04:33:46.420Z,17.30
2018-06-25T04:36:14.460Z,17.30
2018-06-25T04:41:10.868Z,17.30
2018-06-25T04:43:38.983Z,17.40
2018-06-25T04:46:07.016Z,17.40
2018-06-25T04:48:35.063Z,17.40
2018-06-25T04:51:03.109Z,17.50
2018-06-25T04:53:31.153Z,17.50
2018-06-25T04:55:59.185Z,17.50
2018-06-25T04:58:27.223Z,17.50
2018-06-25T05:00:55.286Z,17.50
2018-06-25T05:03:23.446Z,17.60
2018-06-25T05:05:51.481Z,17.50
2018-06-25T05:08:19.535Z,17.50
2018-06-25T05:10:47.585Z,17.50
2018-06-25T05:13:15.616Z,17.40
2018-06-25T05:15:43.657Z,17.50
2018-06-25T05:18:11.693Z,17.50
2018-06-25T05:20:39.835Z,17.50
2018-06-25T05:23:07.872Z,17.60
2018-06-25T05:28:03.768Z,17.70
2018-06-25T05:30:31.996Z,17.70
2018-06-25T05:33:00.030Z,17.70
2018-06-25T05:35:28.084Z,17.70
2018-06-25T05:40:24.009Z,17.80
2018-06-25T05:42:52.065Z,17.90
2018-06-25T05:45:20.129Z,18.00
2018-06-25T05:47:48.233Z,18.10
2018-06-25T05:50:16.291Z,18.10
2018-06-25T05:52:44.356Z,18.20
2018-06-25T05:55:12.417Z,18.20
2018-06-25T05:57:40.476Z,18.30
2018-06-25T06:00:08.541Z,18.50
2018-06-25T06:02:36.600Z,18.50
2018-06-25T06:05:04.666Z,18.50
2018-06-25T06:07:32.721Z,18.50
2018-06-25T06:10:00.810Z,18.60
2018-06-25T06:12:28.868Z,18.60
2018-06-25T06:14:56.947Z,18.80
2018-06-25T06:17:25.044Z,18.90
2018-06-25T06:19:53.076Z,19.00
2018-06-25T06:22:21.129Z,19.10
2018-06-25T06:24:49.188Z,19.30
2018-06-25T06:27:17.258Z,19.40
2018-06-25T06:29:45.316Z,19.50
2018-06-25T06:32:13.381Z,19.60
2018-06-25T06:34:41.441Z,19.80
2018-06-25T06:37:09.510Z,20.00
2018-06-25T06:39:37.565Z,20.20
2018-06-25T06:42:05.689Z,20.40
2018-06-25T06:44:33.736Z,20.60
2018-06-25T06:47:01.825Z,20.80
2018-06-25T06:49:29.861Z,21.10
2018-06-25T06:51:57.973Z,21.30
2018-06-25T06:54:26.838Z,21.50
2018-06-25T06:56:55.852Z,21.50
2018-06-25T06:59:23.877Z,21.70
2018-06-25T07:01:51.941Z,21.80
2018-06-25T07:04:19.982Z,21.90
2018-06-25T07:06:48.017Z,21.90
2018-06-25T07:09:16.056Z,22.00
2018-06-25T07:11:44.157Z,22.00
2018-06-25T07:14:12.200Z,22.20
2018-06-25T07:16:41.237Z,22.30
2018-06-25T07:19:09.541Z,22.40
2018-06-25T07:21:38.018Z,22.60
2018-06-25T07:24:06.069Z,22.60
2018-06-25T07:26:34.114Z,22.80
2018-06-25T07:29:02.153Z,23.00
2018-06-25T07:31:30.189Z,23.20
2018-06-25T07:33:58.232Z,23.30
2018-06-25T07:36:26.353Z,23.40
2018-06-25T07:38:54.449Z,23.50
2018-06-25T07:41:22.503Z,23.60
2018-06-25T07:43:50.582Z,23.70
2018-06-25T07:46:18.654Z,23.80
2018-06-25T07:48:46.721Z,23.90
2018-06-25T07:51:14.801Z,24.00
2018-06-25T07:53:42.880Z,24.00
2018-06-25T07:56:10.910Z,24.00
2018-06-25T07:58:38.989Z,24.10
2018-06-25T08:01:07.264Z,24.00
2018-06-25T08:03:35.446Z,24.10
2018-06-25T08:06:03.380Z,24.10
2018-06-25T08:08:31.477Z,23.90
2018-06-25T08:10:59.533Z,23.70
2018-06-25T08:13:27.600Z,23.40
2018-06-25T08:15:55.672Z,23.20
2018-06-25T08:18:23.740Z,23.10
2018-06-25T08:20:51.801Z,23.10
2018-06-25T08:23:19.860Z,23.10
2018-06-25T08:25:47.916Z,23.00
2018-06-25T08:28:15.977Z,22.90
2018-06-25T08:30:44.039Z,22.80
2018-06-25T08:33:12.141Z,22.80
2018-06-25T08:35:40.241Z,22.80
2018-06-25T08:38:08.296Z,22.80
2018-06-25T08:40:36.341Z,22.90
2018-06-25T08:43:04.507Z,23.00
2018-06-25T08:45:32.521Z,22.90
2018-06-25T08:48:00.578Z,23.00
2018-06-25T08:50:28.612Z,23.10
2018-06-25T08:52:56.658Z,23.30
2018-06-25T08:55:24.702Z,23.40
2018-06-25T08:57:52.745Z,23.50
2018-06-25T09:00:20.797Z,23.60
2018-06-25T09:02:48.835Z,23.60
2018-06-25T09:05:16.916Z,23.70
2018-06-25T09:07:44.921Z,23.70
2018-06-25T09:10:12.978Z,23.70
2018-06-25T09:12:41.021Z,23.70
2018-06-25T09:15:09.085Z,23.80
2018-06-25T09:17:37.117Z,23.90
2018-06-25T09:20:05.164Z,24.00
2018-06-25T09:22:33.212Z,24.20
2018-06-25T09:27:33.402Z,24.60
2018-06-25T09:30:01.401Z,24.80
2018-06-25T09:32:29.441Z,25.20
2018-06-25T09:34:57.489Z,25.50
2018-06-25T09:37:25.525Z,25.80
2018-06-25T09:39:53.604Z,26.10
2018-06-25T09:42:21.681Z,26.20
2018-06-25T09:44:49.804Z,26.20
2018-06-25T09:47:17.816Z,26.10
2018-06-25T09:49:45.880Z,26.00
2018-06-25T09:52:13.941Z,26.00
2018-06-25T09:54:42.032Z,25.90
2018-06-25T09:57:10.071Z,25.70
2018-06-25T10:02:12.852Z,25.60
2018-06-25T10:04:40.928Z,25.70
2018-06-25T10:07:09.080Z,25.80
2018-06-25T10:09:37.144Z,25.80
2018-06-25T10:12:05.207Z,25.90
2018-06-25T10:14:33.259Z,26.80
2018-06-25T10:17:01.325Z,27.40
2018-06-25T10:19:29.389Z,27.60
2018-06-25T10:21:57.453Z,27.60
2018-06-25T10:24:25.523Z,27.70
2018-06-25T10:26:53.581Z,27.90
2018-06-25T10:29:21.632Z,27.80
2018-06-25T10:31:49.720Z,27.50
2018-06-25T10:34:17.781Z,27.10
2018-06-25T10:36:45.868Z,27.10
2018-06-25T10:39:13.921Z,27.10
2018-06-25T10:41:41.969Z,27.30
2018-06-25T10:44:10.013Z,27.30
2018-06-25T10:46:38.056Z,27.00
2018-06-25T10:49:06.097Z,27.00
2018-06-25T10:51:34.124Z,27.00
2018-06-25T10:54:02.165Z,26.90
2018-06-25T10:56:30.225Z,26.80
2018-06-25T10:58:58.297Z,26.60
2018-06-25T11:01:26.496Z,26.40
2018-06-25T11:03:54.740Z,26.40
2018-06-25T11:06:22.801Z,26.30
2018-06-25T11:08:50.840Z,26.50
2018-06-25T11:11:18.880Z,26.90
2018-06-25T11:13:46.941Z,27.40
2018-06-25T11:16:14.993Z,27.70
2018-06-25T11:18:43.033Z,27.80
2018-06-25T11:21:11.096Z,27.50
2018-06-25T11:23:39.136Z,27.30
2018-06-25T11:26:07.182Z,27.50
2018-06-25T11:28:35.227Z,27.60
2018-06-25T11:31:03.257Z,28.10
2018-06-25T11:33:31.304Z,28.60
2018-06-25T11:35:59.337Z,28.80
2018-06-25T11:38:27.397Z,28.70
2018-06-25T11:43:23.286Z,28.80
2018-06-25T11:45:51.321Z,28.90
2018-06-25T11:48:19.381Z,29.00
2018-06-25T11:50:47.436Z,29.60
2018-06-25T11:53:15.480Z,30.00
2018-06-25T11:58:11.361Z,30.60
2018-06-25T12:00:39.397Z,30.90
2018-06-25T12:03:07.872Z,31.20
2018-06-25T12:05:35.812Z,31.50
2018-06-25T12:08:03.860Z,31.40
2018-06-25T12:10:31.932Z,31.10
2018-06-25T12:12:59.954Z,30.80
2018-06-25T12:15:27.976Z,30.80
2018-06-25T12:17:56.033Z,30.70
2018-06-25T12:20:24.064Z,30.50
2018-06-25T12:22:52.096Z,30.30
2018-06-25T12:25:20.138Z,30.20
2018-06-25T12:27:48.231Z,30.00
2018-06-25T12:30:16.212Z,30.00
2018-06-25T12:32:44.362Z,30.40
2018-06-25T12:35:12.427Z,30.70
2018-06-25T12:37:40.454Z,30.90
2018-06-25T12:40:08.504Z,31.10
2018-06-25T12:42:36.560Z,31.30
2018-06-25T12:45:04.805Z,31.50
2018-06-25T12:47:32.864Z,31.70
2018-06-25T12:50:00.933Z,31.60
2018-06-25T12:52:28.988Z,31.40
2018-06-25T12:54:57.056Z,31.10
2018-06-25T12:57:25.117Z,31.10
2018-06-25T12:59:53.185Z,31.30
2018-06-25T13:02:21.240Z,31.60
2018-06-25T13:04:49.309Z,31.80
2018-06-25T13:07:17.381Z,31.70
2018-06-25T13:09:45.449Z,31.40
2018-06-25T13:12:13.501Z,31.10
2018-06-25T13:14:41.572Z,30.70
2018-06-25T13:17:09.621Z,30.40
2018-06-25T13:19:37.684Z,30.30
2018-06-25T13:22:05.754Z,30.30
2018-06-25T13:24:33.809Z,30.40
2018-06-25T13:27:02.046Z,30.60
2018-06-25T13:29:30.103Z,31.10
2018-06-25T13:31:58.160Z,31.40
2018-06-25T13:34:26.217Z,31.20
2018-06-25T13:36:54.329Z,30.60
2018-06-25T13:39:22.329Z,30.20
2018-06-25T13:44:18.206Z,29.50
2018-06-25T13:46:46.250Z,29.40
2018-06-25T13:49:14.276Z,29.30
2018-06-25T13:51:42.330Z,29.30
2018-06-25T13:54:10.381Z,29.20
2018-06-25T13:56:38.429Z,29.30
2018-06-25T13:59:06.465Z,29.50
2018-06-25T14:01:34.680Z,29.50
2018-06-25T14:04:02.708Z,29.60
2018-06-25T14:06:30.764Z,29.80
2018-06-25T14:08:58.804Z,30.00
2018-06-25T14:11:26.840Z,30.30
2018-06-25T14:13:54.893Z,30.50
2018-06-25T14:16:23.073Z,30.90
2018-06-25T14:18:50.977Z,31.20
2018-06-25T14:21:19.012Z,31.40
2018-06-25T14:23:52.496Z,31.50
2018-06-25T14:26:20.516Z,31.60
2018-06-25T14:28:48.564Z,31.40
2018-06-25T14:31:24.477Z,31.10
2018-06-25T14:33:57.876Z,30.80
2018-06-25T14:36:25.924Z,30.60
2018-06-25T14:38:54.001Z,30.50
2018-06-25T14:41:22.074Z,30.50
2018-06-25T14:43:50.138Z,30.70
2018-06-25T14:46:18.205Z,30.50
2018-06-25T14:48:46.264Z,30.20
2018-06-25T14:51:14.353Z,30.00
2018-06-25T14:53:42.408Z,29.90
2018-06-25T14:56:10.472Z,29.60
2018-06-25T14:58:38.532Z,29.30
2018-06-25T15:03:34.454Z,29.10
2018-06-25T15:06:02.509Z,29.10
2018-06-25T15:08:30.565Z,29.30
2018-06-25T15:10:58.616Z,29.60
2018-06-25T15:13:26.684Z,29.70
2018-06-25T15:15:54.845Z,29.80
2018-06-25T15:18:22.927Z,29.70
2018-06-25T15:20:50.980Z,29.80
2018-06-25T15:23:19.057Z,29.90
2018-06-25T15:25:47.109Z,29.90
2018-06-25T15:28:15.181Z,30.00
2018-06-25T15:30:43.244Z,29.80
2018-06-25T15:33:11.297Z,29.60
2018-06-25T15:35:39.412Z,29.50
2018-06-25T15:38:07.527Z,29.50
2018-06-25T15:40:35.596Z,29.30
2018-06-25T15:45:31.512Z,28.80
2018-06-25T15:47:59.632Z,28.50
2018-06-25T15:50:27.640Z,28.30
2018-06-25T15:52:55.713Z,28.00
2018-06-25T15:55:23.781Z,27.90
2018-06-25T15:57:51.824Z,27.80
2018-06-25T16:00:19.911Z,27.70
2018-06-25T16:02:47.976Z,27.70
2018-06-25T16:05:16.048Z,27.90
2018-06-25T16:07:44.108Z,27.90
2018-06-25T16:10:12.188Z,27.90
2018-06-25T16:12:40.287Z,27.80
2018-06-25T16:15:08.344Z,27.60
2018-06-25T16:17:36.396Z,27.60
2018-06-25T16:20:04.625Z,27.50
2018-06-25T16:22:32.700Z,27.40
2018-06-25T16:25:00.764Z,27.30
2018-06-25T16:27:28.836Z,27.20
2018-06-25T16:29:56.899Z,27.10
2018-06-25T16:32:24.973Z,27.10
2018-06-25T16:34:53.024Z,27.10
2018-06-25T16:37:21.101Z,27.00
2018-06-25T16:39:49.174Z,27.00
2018-06-25T16:42:17.228Z,27.00
2018-06-25T16:44:45.292Z,27.00
2018-06-25T16:47:13.369Z,27.00
2018-06-25T16:49:41.437Z,27.10
2018-06-25T16:52:09.501Z,27.10
2018-06-25T16:54:37.574Z,27.10
2018-06-25T16:57:05.643Z,27.20
2018-06-25T16:59:33.703Z,27.30
2018-06-25T17:02:01.786Z,27.30
2018-06-25T17:04:29.840Z,27.40
2018-06-25T17:06:57.904Z,27.50
2018-06-25T17:09:25.957Z,27.70
2018-06-25T17:11:54.041Z,27.80
2018-06-25T17:14:22.096Z,27.70
2018-06-25T17:16:50.169Z,27.50
2018-06-25T17:19:18.221Z,27.40
2018-06-25T17:21:46.276Z,27.20
2018-06-25T17:24:14.335Z,27.10
2018-06-25T17:26:48.825Z,27.10
2018-06-25T17:29:16.889Z,26.90
2018-06-25T17:31:44.959Z,26.70
2018-06-25T17:34:13.023Z,26.70
2018-06-25T17:36:41.072Z,26.70
2018-06-25T17:39:09.220Z,26.50
2018-06-25T17:41:37.264Z,26.50
2018-06-25T17:44:05.317Z,26.50
2018-06-25T17:46:33.388Z,26.40
2018-06-25T17:49:01.432Z,26.20
2018-06-25T17:51:29.478Z,26.00
2018-06-25T17:53:57.547Z,25.80
2018-06-25T17:56:25.583Z,25.70
2018-06-25T17:58:53.800Z,25.40
2018-06-25T18:01:21.883Z,25.30
2018-06-25T18:03:49.910Z,25.20
2018-06-25T18:06:17.929Z,25.10
2018-06-25T18:08:45.985Z,25.00
2018-06-25T18:11:14.025Z,24.90
2018-06-25T18:13:42.177Z,24.80
2018-06-25T18:16:10.481Z,24.70
2018-06-25T18:18:38.521Z,24.60
2018-06-25T18:21:06.689Z,24.40
2018-06-25T18:23:34.729Z,24.20
2018-06-25T18:26:02.772Z,24.10
2018-06-25T18:28:30.844Z,24.00
2018-06-25T18:30:58.884Z,23.80
2018-06-25T18:33:26.942Z,23.70
2018-06-25T18:35:55.273Z,23.60
2018-06-25T18:38:23.405Z,23.60
2018-06-25T18:40:51.449Z,23.60
2018-06-25T18:43:19.521Z,23.50
2018-06-25T18:45:47.548Z,23.40
2018-06-25T18:48:15.578Z,23.30
2018-06-25T18:50:43.628Z,23.30
2018-06-25T18:53:11.668Z,23.10
2018-06-25T18:55:39.740Z,23.10
2018-06-25T18:58:07.829Z,23.00
2018-06-25T19:00:35.900Z,22.80
2018-06-25T19:03:03.954Z,22.80
2018-06-25T19:05:32.032Z,22.60
2018-06-25T19:08:00.074Z,22.50
2018-06-25T19:10:28.136Z,22.40
2018-06-25T19:12:56.200Z,22.30
2018-06-25T19:15:24.295Z,22.20
2018-06-25T19:17:52.382Z,22.10
2018-06-25T19:20:20.384Z,22.00
2018-06-25T19:22:48.452Z,21.90
2018-06-25T19:25:16.532Z,21.90
2018-06-25T19:27:44.610Z,21.80
2018-06-25T19:30:12.681Z,21.80
2018-06-25T19:32:40.741Z,21.70
2018-06-25T19:35:08.985Z,21.70
2018-06-25T19:37:37.045Z,21.60
2018-06-25T19:40:05.257Z,21.50
2018-06-25T19:42:33.313Z,21.40
2018-06-25T19:45:01.352Z,21.40
2018-06-25T19:47:29.406Z,21.30
2018-06-25T19:49:57.457Z,21.30
2018-06-25T19:52:25.508Z,21.30
2018-06-25T19:54:53.551Z,21.30
2018-06-25T19:57:21.599Z,21.20
2018-06-25T19:59:49.645Z,21.20
2018-06-25T20:02:17.693Z,21.20
2018-06-25T20:04:46.205Z,20.90
2018-06-25T20:07:14.388Z,20.90
2018-06-25T20:09:42.538Z,20.80
2018-06-25T20:12:10.578Z,20.80
2018-06-25T20:14:38.629Z,20.80
2018-06-25T20:17:06.665Z,20.70
2018-06-25T20:19:34.814Z,20.60
2018-06-25T20:22:02.838Z,20.70
2018-06-25T20:24:30.881Z,20.60
2018-06-25T20:26:58.916Z,20.50
2018-06-25T20:29:28.283Z,20.50
2018-06-25T20:31:56.323Z,20.50
2018-06-25T20:36:53.149Z,20.40
2018-06-25T20:39:21.193Z,20.40
2018-06-25T20:41:49.236Z,20.30
2018-06-25T20:44:17.274Z,20.30
2018-06-25T20:46:45.328Z,20.30
2018-06-25T20:49:13.389Z,20.40
2018-06-25T20:51:41.426Z,20.40
2018-06-25T20:54:09.664Z,20.40
2018-06-25T20:56:37.693Z,20.40
2018-06-25T20:59:05.795Z,20.40
2018-06-25T21:01:33.844Z,20.40
2018-06-25T21:04:01.901Z,20.50
2018-06-25T21:06:29.949Z,20.50
2018-06-25T21:08:58.000Z,20.50
2018-06-25T21:11:26.335Z,20.50
2018-06-25T21:13:54.384Z,20.50
2018-06-25T21:16:22.469Z,20.50
2018-06-25T21:18:50.504Z,20.50
2018-06-25T21:21:18.567Z,20.50
2018-06-25T21:23:46.601Z,20.50
2018-06-25T21:26:14.659Z,20.50
2018-06-25T21:28:42.696Z,20.50
2018-06-25T21:31:10.749Z,20.40
2018-06-25T21:33:38.797Z,20.40
2018-06-25T21:36:06.973Z,20.40
2018-06-25T21:38:34.925Z,20.40
2018-06-25T21:41:02.989Z,20.40
2018-06-25T21:43:31.055Z,20.40
2018-06-25T21:45:59.112Z,20.30
2018-06-25T21:48:27.296Z,20.30
2018-06-25T21:50:55.369Z,20.20
2018-06-25T21:53:23.416Z,20.10
2018-06-25T21:55:51.488Z,20.00
2018-06-25T21:58:19.578Z,19.90
2018-06-25T22:00:50.356Z,19.70
2018-06-25T22:03:18.463Z,19.60
2018-06-25T22:05:47.189Z,19.50
2018-06-25T22:08:15.361Z,19.40
2018-06-25T22:10:43.422Z,19.30
2018-06-25T22:13:11.491Z,19.20
2018-06-25T22:15:39.548Z,19.10
2018-06-25T22:18:08.125Z,19.00
2018-06-25T22:20:36.501Z,18.90
2018-06-25T22:23:04.592Z,18.80
2018-06-25T22:25:32.709Z,18.70
2018-06-25T22:28:00.777Z,18.70
2018-06-25T22:30:28.844Z,18.60
2018-06-25T22:32:56.921Z,18.60
2018-06-25T22:35:25.213Z,18.50
2018-06-25T22:37:53.281Z,18.40
2018-06-25T22:40:21.336Z,18.40
2018-06-25T22:45:17.260Z,18.30
2018-06-25T22:47:45.332Z,18.20
2018-06-25T22:50:13.377Z,18.10
2018-06-25T22:55:09.385Z,18.00
2018-06-25T22:57:37.436Z,18.00
2018-06-25T23:00:05.965Z,17.90
2018-06-25T23:02:34.017Z,17.90
2018-06-25T23:05:02.294Z,17.80
2018-06-25T23:07:30.338Z,17.80
2018-06-25T23:09:58.389Z,17.70
2018-06-25T23:12:26.420Z,17.70
2018-06-25T23:14:54.472Z,17.70
2018-06-25T23:17:22.518Z,17.60
2018-06-25T23:19:50.565Z,17.60
2018-06-25T23:22:18.617Z,17.60
2018-06-25T23:24:46.669Z,17.60
2018-06-25T23:27:14.716Z,17.60
2018-06-25T23:29:42.769Z,17.50
2018-06-25T23:32:10.817Z,17.50
2018-06-25T23:34:38.896Z,17.50
2018-06-25T23:37:07.034Z,17.60
2018-06-25T23:39:35.091Z,17.60
2018-06-25T23:42:03.138Z,17.60
2018-06-25T23:44:31.181Z,17.60
2018-06-25T23:46:59.226Z,17.60
2018-06-25T23:49:27.280Z,17.60
2018-06-25T23:51:55.328Z,17.60
2018-06-25T23:54:23.380Z,17.60
2018-06-25T23:56:51.421Z,17.50
2018-06-25T23:59:19.468Z,17.40
